sensor_id;sensor_type;location;lat;lon;timestamp;pressure;altitude;pressure_sealevel;temperature;humidity
10806;BME280;5455;53.224;6.000;2023-03-14T00:01:32;98607.94;;;9.92;100.00
10806;BME280;5455;53.224;6.000;2023-03-14T00:03:59;98599.22;;;9.97;100.00
10806;BME280;5455;53.224;6.000;2023-03-14T00:06:26;98598.88;;;9.95;100.00
10806;BME280;5455;53.224;6.000;2023-03-14T00:08:53;98592.56;;;9.95;100.00
10806;BME280;5455;53.224;6.000;2023-03-14T00:11:21;98594.53;;;9.94;100.00
10806;BME280;5455;53.224;6.000;2023-03-14T00:13:50;98596.88;;;10.00;100.00
10806;BME280;5455;53.224;6.000;2023-03-14T00:16:17;98586.53;;;10.07;100.00
10806;BME280;5455;53.224;6.000;2023-03-14T00:18:44;98597.56;;;10.07;100.00
10806;BME280;5455;53.224;6.000;2023-03-14T00:21:12;98599.16;;;10.05;100.00
10806;BME280;5455;53.224;6.000;2023-03-14T00:23:41;98594.13;;;10.00;100.00
10806;BME280;5455;53.224;6.000;2023-03-14T00:26:13;98592.19;;;9.96;100.00
10806;BME280;5455;53.224;6.000;2023-03-14T00:28:42;98589.03;;;9.94;100.00
10806;BME280;5455;53.224;6.000;2023-03-14T00:31:11;98589.91;;;9.88;100.00
10806;BME280;5455;53.224;6.000;2023-03-14T00:33:41;98588.44;;;9.76;100.00
10806;BME280;5455;53.224;6.000;2023-03-14T00:36:11;98585.81;;;9.66;100.00
10806;BME280;5455;53.224;6.000;2023-03-14T00:38:40;98587.03;;;9.61;100.00
10806;BME280;5455;53.224;6.000;2023-03-14T00:41:10;98585.09;;;9.58;100.00
10806;BME280;5455;53.224;6.000;2023-03-14T00:43:37;98586.31;;;9.54;100.00
10806;BME280;5455;53.224;6.000;2023-03-14T00:46:06;98591.13;;;9.46;100.00
10806;BME280;5455;53.224;6.000;2023-03-14T00:48:33;98579.75;;;9.40;100.00
10806;BME280;5455;53.224;6.000;2023-03-14T00:51:01;98578.63;;;9.34;100.00
10806;BME280;5455;53.224;6.000;2023-03-14T00:53:28;98577.50;;;9.28;100.00
10806;BME280;5455;53.224;6.000;2023-03-14T00:55:55;98576.00;;;9.20;100.00
10806;BME280;5455;53.224;6.000;2023-03-14T00:58:22;98593.75;;;9.12;100.00
10806;BME280;5455;53.224;6.000;2023-03-14T01:00:49;98589.06;;;9.09;100.00
10806;BME280;5455;53.224;6.000;2023-03-14T01:03:16;98581.97;;;9.12;100.00
10806;BME280;5455;53.224;6.000;2023-03-14T01:05:43;98584.66;;;9.19;100.00
10806;BME280;5455;53.224;6.000;2023-03-14T01:08:10;98580.66;;;9.27;100.00
10806;BME280;5455;53.224;6.000;2023-03-14T01:10:39;98567.69;;;9.27;100.00
10806;BME280;5455;53.224;6.000;2023-03-14T01:13:07;98578.25;;;9.32;100.00
10806;BME280;5455;53.224;6.000;2023-03-14T01:15:36;98572.28;;;9.41;100.00
10806;BME280;5455;53.224;6.000;2023-03-14T01:18:04;98567.13;;;9.47;100.00
10806;BME280;5455;53.224;6.000;2023-03-14T01:20:31;98574.19;;;9.48;100.00
10806;BME280;5455;53.224;6.000;2023-03-14T01:22:58;98582.41;;;9.51;100.00
10806;BME280;5455;53.224;6.000;2023-03-14T01:25:25;98589.03;;;9.57;100.00
10806;BME280;5455;53.224;6.000;2023-03-14T01:27:53;98589.00;;;9.61;100.00
10806;BME280;5455;53.224;6.000;2023-03-14T01:30:21;98584.69;;;9.60;100.00
10806;BME280;5455;53.224;6.000;2023-03-14T01:32:48;98583.91;;;9.59;100.00
10806;BME280;5455;53.224;6.000;2023-03-14T01:35:15;98572.53;;;9.57;100.00
10806;BME280;5455;53.224;6.000;2023-03-14T01:37:42;98569.00;;;9.57;100.00
10806;BME280;5455;53.224;6.000;2023-03-14T01:40:14;98577.25;;;9.57;100.00
10806;BME280;5455;53.224;6.000;2023-03-14T01:42:57;98573.69;;;9.60;100.00
10806;BME280;5455;53.224;6.000;2023-03-14T01:48:34;98578.34;;;9.66;100.00
10806;BME280;5455;53.224;6.000;2023-03-14T01:51:05;98570.09;;;9.66;100.00
10806;BME280;5455;53.224;6.000;2023-03-14T01:53:35;98569.72;;;9.64;100.00
10806;BME280;5455;53.224;6.000;2023-03-14T01:56:03;98559.47;;;9.65;100.00
10806;BME280;5455;53.224;6.000;2023-03-14T01:58:31;98567.38;;;9.63;100.00
10806;BME280;5455;53.224;6.000;2023-03-14T02:01:02;98552.81;;;9.62;100.00
10806;BME280;5455;53.224;6.000;2023-03-14T02:03:32;98554.44;;;9.60;100.00
10806;BME280;5455;53.224;6.000;2023-03-14T02:06:06;98557.97;;;9.60;100.00
10806;BME280;5455;53.224;6.000;2023-03-14T02:08:37;98554.47;;;9.56;100.00
10806;BME280;5455;53.224;6.000;2023-03-14T02:11:12;98550.19;;;9.52;100.00
10806;BME280;5455;53.224;6.000;2023-03-14T02:13:59;98550.59;;;9.50;100.00
10806;BME280;5455;53.224;6.000;2023-03-14T02:16:52;98536.88;;;9.47;100.00
10806;BME280;5455;53.224;6.000;2023-03-14T02:22:46;98556.53;;;9.45;100.00
10806;BME280;5455;53.224;6.000;2023-03-14T02:25:55;98543.97;;;9.44;100.00
10806;BME280;5455;53.224;6.000;2023-03-14T02:28:14;98538.88;;;9.43;100.00
10806;BME280;5455;53.224;6.000;2023-03-14T02:30:42;98542.03;;;9.41;100.00
10806;BME280;5455;53.224;6.000;2023-03-14T02:33:17;98527.50;;;9.40;100.00
10806;BME280;5455;53.224;6.000;2023-03-14T02:35:59;98536.16;;;9.39;100.00
10806;BME280;5455;53.224;6.000;2023-03-14T02:38:47;98527.91;;;9.39;100.00
10806;BME280;5455;53.224;6.000;2023-03-14T02:41:18;98519.66;;;9.39;100.00
10806;BME280;5455;53.224;6.000;2023-03-14T02:43:58;98535.75;;;9.40;100.00
10806;BME280;5455;53.224;6.000;2023-03-14T02:46:25;98520.44;;;9.39;100.00
10806;BME280;5455;53.224;6.000;2023-03-14T02:48:58;98527.50;;;9.40;100.00
10806;BME280;5455;53.224;6.000;2023-03-14T02:51:30;98531.81;;;9.41;100.00
10806;BME280;5455;53.224;6.000;2023-03-14T02:53:58;98535.00;;;9.40;100.00
10806;BME280;5455;53.224;6.000;2023-03-14T02:56:25;98533.41;;;9.39;100.00
10806;BME280;5455;53.224;6.000;2023-03-14T02:58:53;98539.31;;;9.37;100.00
10806;BME280;5455;53.224;6.000;2023-03-14T03:01:37;98527.97;;;9.32;100.00
10806;BME280;5455;53.224;6.000;2023-03-14T03:04:04;98533.94;;;9.23;100.00
10806;BME280;5455;53.224;6.000;2023-03-14T03:06:31;98524.59;;;9.17;100.00
10806;BME280;5455;53.224;6.000;2023-03-14T03:08:59;98524.59;;;9.17;100.00
10806;BME280;5455;53.224;6.000;2023-03-14T03:11:27;98523.00;;;9.16;100.00
10806;BME280;5455;53.224;6.000;2023-03-14T03:13:54;98516.75;;;9.16;100.00
10806;BME280;5455;53.224;6.000;2023-03-14T03:16:21;98523.88;;;9.10;100.00
10806;BME280;5455;53.224;6.000;2023-03-14T03:18:48;98518.41;;;9.06;100.00
10806;BME280;5455;53.224;6.000;2023-03-14T03:21:16;98523.53;;;9.04;100.00
10806;BME280;5455;53.224;6.000;2023-03-14T03:23:43;98521.59;;;9.01;100.00
10806;BME280;5455;53.224;6.000;2023-03-14T03:26:10;98512.56;;;9.01;100.00
10806;BME280;5455;53.224;6.000;2023-03-14T03:28:38;98515.31;;;9.01;100.00
10806;BME280;5455;53.224;6.000;2023-03-14T03:31:07;98520.38;;;9.02;100.00
10806;BME280;5455;53.224;6.000;2023-03-14T03:33:36;98515.28;;;9.04;100.00
10806;BME280;5455;53.224;6.000;2023-03-14T03:36:04;98509.38;;;9.06;100.00
10806;BME280;5455;53.224;6.000;2023-03-14T03:38:35;98507.00;;;9.08;100.00
10806;BME280;5455;53.224;6.000;2023-03-14T03:41:07;98514.84;;;9.09;100.00
10806;BME280;5455;53.224;6.000;2023-03-14T03:43:35;98526.19;;;9.11;100.00
10806;BME280;5455;53.224;6.000;2023-03-14T03:46:05;98516.75;;;9.16;100.00
10806;BME280;5455;53.224;6.000;2023-03-14T03:48:33;98519.09;;;9.17;100.00
10806;BME280;5455;53.224;6.000;2023-03-14T03:51:03;98523.41;;;9.18;100.00
10806;BME280;5455;53.224;6.000;2023-03-14T03:53:31;98514.75;;;9.16;100.00
10806;BME280;5455;53.224;6.000;2023-03-14T03:56:08;98519.88;;;9.14;100.00
10806;BME280;5455;53.224;6.000;2023-03-14T03:58:36;98520.72;;;9.11;100.00
10806;BME280;5455;53.224;6.000;2023-03-14T04:01:06;98507.38;;;9.10;100.00
10806;BME280;5455;53.224;6.000;2023-03-14T04:03:34;98514.44;;;9.07;100.00
10806;BME280;5455;53.224;6.000;2023-03-14T04:06:04;98521.50;;;9.08;100.00
10806;BME280;5455;53.224;6.000;2023-03-14T04:08:33;98519.19;;;9.07;100.00
10806;BME280;5455;53.224;6.000;2023-03-14T04:11:01;98519.13;;;9.10;100.00
10806;BME280;5455;53.224;6.000;2023-03-14T04:13:47;98511.66;;;9.11;100.00
10806;BME280;5455;53.224;6.000;2023-03-14T04:16:17;98516.00;;;9.12;100.00
10806;BME280;5455;53.224;6.000;2023-03-14T04:18:46;98510.47;;;9.15;100.00
10806;BME280;5455;53.224;6.000;2023-03-14T04:21:14;98516.75;;;9.16;100.00
10806;BME280;5455;53.224;6.000;2023-03-14T04:23:45;98515.97;;;9.15;100.00
10806;BME280;5455;53.224;6.000;2023-03-14T04:26:14;98518.28;;;9.17;100.00
10806;BME280;5455;53.224;6.000;2023-03-14T04:28:41;98503.03;;;9.12;100.00
10806;BME280;5455;53.224;6.000;2023-03-14T04:31:12;98508.44;;;9.19;100.00
10806;BME280;5455;53.224;6.000;2023-03-14T04:33:40;98513.59;;;9.14;100.00
10806;BME280;5455;53.224;6.000;2023-03-14T04:36:11;98517.66;;;9.02;100.00
10806;BME280;5455;53.224;6.000;2023-03-14T04:38:39;98527.53;;;8.93;100.00
10806;BME280;5455;53.224;6.000;2023-03-14T04:41:07;98518.22;;;8.83;100.00
10806;BME280;5455;53.224;6.000;2023-03-14T04:43:35;98515.09;;;8.77;100.00
10806;BME280;5455;53.224;6.000;2023-03-14T04:46:05;98514.34;;;8.73;100.00
10806;BME280;5455;53.224;6.000;2023-03-14T04:48:33;98525.72;;;8.72;100.00
10806;BME280;5455;53.224;6.000;2023-03-14T04:51:00;98514.72;;;8.72;100.00
10806;BME280;5455;53.224;6.000;2023-03-14T04:53:31;98504.97;;;8.67;100.00
10806;BME280;5455;53.224;6.000;2023-03-14T04:56:00;98498.69;;;8.67;100.00
10806;BME280;5455;53.224;6.000;2023-03-14T04:58:34;98508.91;;;8.66;100.00
10806;BME280;5455;53.224;6.000;2023-03-14T05:01:03;98512.81;;;8.65;100.00
10806;BME280;5455;53.224;6.000;2023-03-14T05:03:53;98511.66;;;8.66;100.00
10806;BME280;5455;53.224;6.000;2023-03-14T05:06:40;98509.25;;;8.68;100.00
10806;BME280;5455;53.224;6.000;2023-03-14T05:09:35;98512.00;;;8.68;100.00
10806;BME280;5455;53.224;6.000;2023-03-14T05:12:19;98507.72;;;8.67;100.00
10806;BME280;5455;53.224;6.000;2023-03-14T05:15:03;98499.47;;;8.67;100.00
10806;BME280;5455;53.224;6.000;2023-03-14T05:17:47;98512.00;;;8.68;100.00
10806;BME280;5455;53.224;6.000;2023-03-14T05:20:36;98513.19;;;8.71;100.00
10806;BME280;5455;53.224;6.000;2023-03-14T05:23:19;98507.69;;;8.71;100.00
10806;BME280;5455;53.224;6.000;2023-03-14T05:26:23;98512.78;;;8.72;100.00
10806;BME280;5455;53.224;6.000;2023-03-14T05:29:13;98511.19;;;8.75;100.00
10806;BME280;5455;53.224;6.000;2023-03-14T05:31:53;98517.88;;;8.74;100.00
10806;BME280;5455;53.224;6.000;2023-03-14T05:34:38;98508.44;;;8.71;100.00
10806;BME280;5455;53.224;6.000;2023-03-14T05:37:29;98529.28;;;8.69;100.00
10806;BME280;5455;53.224;6.000;2023-03-14T05:40:16;98518.28;;;8.69;100.00
10806;BME280;5455;53.224;6.000;2023-03-14T05:42:56;98536.00;;;8.64;100.00
10806;BME280;5455;53.224;6.000;2023-03-14T05:45:38;98541.09;;;8.62;100.00
10806;BME280;5455;53.224;6.000;2023-03-14T05:48:16;98553.69;;;8.56;100.00
10806;BME280;5455;53.224;6.000;2023-03-14T05:50:57;98567.81;;;8.55;100.00
10806;BME280;5455;53.224;6.000;2023-03-14T05:53:48;98592.63;;;8.37;100.00
10806;BME280;5455;53.224;6.000;2023-03-14T05:56:36;98610.81;;;7.78;100.00
10806;BME280;5455;53.224;6.000;2023-03-14T05:59:02;98610.09;;;7.28;100.00
10806;BME280;5455;53.224;6.000;2023-03-14T06:01:52;98604.59;;;6.93;100.00
10806;BME280;5455;53.224;6.000;2023-03-14T06:04:24;98615.50;;;6.72;100.00
10806;BME280;5455;53.224;6.000;2023-03-14T06:06:55;98619.38;;;6.46;100.00
10806;BME280;5455;53.224;6.000;2023-03-14T06:09:23;98622.78;;;6.29;100.00
10806;BME280;5455;53.224;6.000;2023-03-14T06:11:52;98648.53;;;6.17;100.00
10806;BME280;5455;53.224;6.000;2023-03-14T06:14:20;98648.84;;;6.01;100.00
10806;BME280;5455;53.224;6.000;2023-03-14T06:16:48;98656.56;;;5.89;100.00
10806;BME280;5455;53.224;6.000;2023-03-14T06:19:17;98662.00;;;5.82;100.00
10806;BME280;5455;53.224;6.000;2023-03-14T06:21:44;98676.00;;;5.73;100.00
10806;BME280;5455;53.224;6.000;2023-03-14T06:24:11;98688.38;;;5.60;100.00
10806;BME280;5455;53.224;6.000;2023-03-14T06:26:43;98692.56;;;5.43;100.00
10806;BME280;5455;53.224;6.000;2023-03-14T06:29:10;98702.09;;;5.23;100.00
10806;BME280;5455;53.224;6.000;2023-03-14T06:31:38;98706.34;;;5.17;100.00
10806;BME280;5455;53.224;6.000;2023-03-14T06:34:06;98735.44;;;5.03;100.00
10806;BME280;5455;53.224;6.000;2023-03-14T06:36:33;98754.75;;;4.87;100.00
10806;BME280;5455;53.224;6.000;2023-03-14T06:39:01;98744.94;;;4.79;100.00
10806;BME280;5455;53.224;6.000;2023-03-14T06:41:30;98761.66;;;4.74;100.00
10806;BME280;5455;53.224;6.000;2023-03-14T06:43:58;98778.81;;;4.74;100.00
10806;BME280;5455;53.224;6.000;2023-03-14T06:46:26;98789.56;;;4.64;100.00
10806;BME280;5455;53.224;6.000;2023-03-14T06:48:53;98796.47;;;4.54;100.00
10806;BME280;5455;53.224;6.000;2023-03-14T06:51:20;98805.72;;;4.46;100.00
10806;BME280;5455;53.224;6.000;2023-03-14T06:53:48;98819.03;;;4.51;100.00
10806;BME280;5455;53.224;6.000;2023-03-14T06:56:16;98822.88;;;4.47;100.00
10806;BME280;5455;53.224;6.000;2023-03-14T06:58:43;98830.66;;;4.44;100.00
10806;BME280;5455;53.224;6.000;2023-03-14T07:03:50;98858.13;;;4.59;100.00
10806;BME280;5455;53.224;6.000;2023-03-14T07:06:18;98883.81;;;4.58;100.00
10806;BME280;5455;53.224;6.000;2023-03-14T07:08:46;98878.44;;;4.61;100.00
10806;BME280;5455;53.224;6.000;2023-03-14T07:11:15;98892.47;;;4.63;100.00
10806;BME280;5455;53.224;6.000;2023-03-14T07:13:43;98905.78;;;4.65;100.00
10806;BME280;5455;53.224;6.000;2023-03-14T07:16:10;98915.09;;;4.64;100.00
10806;BME280;5455;53.224;6.000;2023-03-14T07:18:37;98931.16;;;4.69;100.00
10806;BME280;5455;53.224;6.000;2023-03-14T07:21:06;98929.28;;;4.73;100.00
10806;BME280;5455;53.224;6.000;2023-03-14T07:23:34;98937.94;;;4.78;100.00
10806;BME280;5455;53.224;6.000;2023-03-14T07:26:01;98951.31;;;4.83;100.00
10806;BME280;5455;53.224;6.000;2023-03-14T07:28:30;98959.00;;;4.78;100.00
10806;BME280;5455;53.224;6.000;2023-03-14T07:31:06;98981.75;;;4.85;100.00
10806;BME280;5455;53.224;6.000;2023-03-14T07:33:33;99000.97;;;4.92;100.00
10806;BME280;5455;53.224;6.000;2023-03-14T07:36:01;99008.84;;;4.97;100.00
10806;BME280;5455;53.224;6.000;2023-03-14T07:38:29;99015.91;;;5.02;100.00
10806;BME280;5455;53.224;6.000;2023-03-14T07:41:22;99027.38;;;5.11;100.00
10806;BME280;5455;53.224;6.000;2023-03-14T07:44:08;99040.75;;;5.16;100.00
10806;BME280;5455;53.224;6.000;2023-03-14T07:46:35;99046.63;;;5.18;100.00
10806;BME280;5455;53.224;6.000;2023-03-14T07:49:02;99056.00;;;5.21;100.00
10806;BME280;5455;53.224;6.000;2023-03-14T07:51:29;99065.13;;;5.28;100.00
10806;BME280;5455;53.224;6.000;2023-03-14T07:53:56;99072.59;;;5.31;100.00
10806;BME280;5455;53.224;6.000;2023-03-14T07:56:23;99084.50;;;5.46;100.00
10806;BME280;5455;53.224;6.000;2023-03-14T07:58:50;99105.38;;;5.57;100.00
10806;BME280;5455;53.224;6.000;2023-03-14T08:01:17;99106.56;;;5.60;100.00
10806;BME280;5455;53.224;6.000;2023-03-14T08:03:44;99112.22;;;5.74;100.00
10806;BME280;5455;53.224;6.000;2023-03-14T08:06:11;99105.69;;;5.79;100.00
10806;BME280;5455;53.224;6.000;2023-03-14T08:08:39;99116.66;;;5.82;100.00
10806;BME280;5455;53.224;6.000;2023-03-14T08:11:07;99118.31;;;5.87;100.00
10806;BME280;5455;53.224;6.000;2023-03-14T08:13:37;99130.84;;;5.88;100.00
10806;BME280;5455;53.224;6.000;2023-03-14T08:16:04;99151.97;;;5.91;100.00
10806;BME280;5455;53.224;6.000;2023-03-14T08:18:32;99141.13;;;5.98;100.00
10806;BME280;5455;53.224;6.000;2023-03-14T08:20:59;99164.16;;;5.97;100.00
10806;BME280;5455;53.224;6.000;2023-03-14T08:23:26;99176.31;;;5.99;100.00
10806;BME280;5455;53.224;6.000;2023-03-14T08:25:53;99176.00;;;6.04;100.00
10806;BME280;5455;53.224;6.000;2023-03-14T08:28:20;99187.44;;;6.14;100.00
10806;BME280;5455;53.224;6.000;2023-03-14T08:30:47;99187.03;;;6.12;100.00
10806;BME280;5455;53.224;6.000;2023-03-14T08:33:14;99189.22;;;6.29;100.00
10806;BME280;5455;53.224;6.000;2023-03-14T08:35:41;99205.00;;;6.39;100.00
10806;BME280;5455;53.224;6.000;2023-03-14T08:38:08;99213.03;;;6.54;100.00
10806;BME280;5455;53.224;6.000;2023-03-14T08:40:35;99228.38;;;6.62;100.00
10806;BME280;5455;53.224;6.000;2023-03-14T08:43:02;99222.16;;;6.65;100.00
10806;BME280;5455;53.224;6.000;2023-03-14T08:45:29;99246.56;;;6.78;100.00
10806;BME280;5455;53.224;6.000;2023-03-14T08:47:57;99261.47;;;6.80;100.00
10806;BME280;5455;53.224;6.000;2023-03-14T08:50:24;99260.09;;;6.67;100.00
10806;BME280;5455;53.224;6.000;2023-03-14T08:52:51;99251.88;;;6.37;100.00
10806;BME280;5455;53.224;6.000;2023-03-14T08:55:19;99281.47;;;6.28;100.00
10806;BME280;5455;53.224;6.000;2023-03-14T08:57:46;99284.84;;;6.18;100.00
10806;BME280;5455;53.224;6.000;2023-03-14T09:00:13;99287.66;;;6.22;100.00
10806;BME280;5455;53.224;6.000;2023-03-14T09:02:42;99298.81;;;6.36;100.00
10806;BME280;5455;53.224;6.000;2023-03-14T09:05:10;99306.22;;;6.35;100.00
10806;BME280;5455;53.224;6.000;2023-03-14T09:07:38;99324.94;;;6.59;100.00
10806;BME280;5455;53.224;6.000;2023-03-14T09:10:07;99324.31;;;6.70;100.00
10806;BME280;5455;53.224;6.000;2023-03-14T09:12:34;99349.84;;;6.77;100.00
10806;BME280;5455;53.224;6.000;2023-03-14T09:15:01;99356.91;;;6.78;100.00
10806;BME280;5455;53.224;6.000;2023-03-14T09:17:29;99360.00;;;6.77;100.00
10806;BME280;5455;53.224;6.000;2023-03-14T09:19:56;99367.94;;;6.85;100.00
10806;BME280;5455;53.224;6.000;2023-03-14T09:22:26;99375.75;;;6.83;100.00
10806;BME280;5455;53.224;6.000;2023-03-14T09:24:53;99384.44;;;6.89;100.00
10806;BME280;5455;53.224;6.000;2023-03-14T09:27:20;99392.66;;;6.89;100.00
10806;BME280;5455;53.224;6.000;2023-03-14T09:29:47;99418.09;;;6.89;100.00
10806;BME280;5455;53.224;6.000;2023-03-14T09:32:13;99411.84;;;6.89;100.00
10806;BME280;5455;53.224;6.000;2023-03-14T09:34:40;99432.06;;;6.81;100.00
10806;BME280;5455;53.224;6.000;2023-03-14T09:37:07;99433.53;;;6.75;100.00
10806;BME280;5455;53.224;6.000;2023-03-14T09:39:34;99460.06;;;6.71;100.00
10806;BME280;5455;53.224;6.000;2023-03-14T09:42:05;99459.84;;;6.56;100.00
10806;BME280;5455;53.224;6.000;2023-03-14T09:44:36;99477.06;;;6.57;100.00
10806;BME280;5455;53.224;6.000;2023-03-14T09:47:07;99488.22;;;6.45;100.00
10806;BME280;5455;53.224;6.000;2023-03-14T09:49:37;99495.31;;;6.49;100.00
10806;BME280;5455;53.224;6.000;2023-03-14T09:52:13;99504.94;;;6.62;100.00
10806;BME280;5455;53.224;6.000;2023-03-14T09:57:46;99522.50;;;7.07;100.00
10806;BME280;5455;53.224;6.000;2023-03-14T10:00:21;99540.94;;;7.10;100.00
10806;BME280;5455;53.224;6.000;2023-03-14T10:05:38;99544.66;;;6.98;100.00
10806;BME280;5455;53.224;6.000;2023-03-14T10:08:06;99561.16;;;7.02;100.00
10806;BME280;5455;53.224;6.000;2023-03-14T10:10:33;99578.28;;;6.95;100.00
10806;BME280;5455;53.224;6.000;2023-03-14T10:16:00;99596.66;;;6.95;100.00
10806;BME280;5455;53.224;6.000;2023-03-14T10:18:30;99588.75;;;6.90;98.99
10806;BME280;5455;53.224;6.000;2023-03-14T10:21:17;99598.84;;;6.63;96.03
10806;BME280;5455;53.224;6.000;2023-03-14T10:23:47;99629.91;;;6.51;97.18
10806;BME280;5455;53.224;6.000;2023-03-14T10:26:17;99608.41;;;6.73;94.69
10806;BME280;5455;53.224;6.000;2023-03-14T10:28:51;99628.63;;;6.87;89.78
10806;BME280;5455;53.224;6.000;2023-03-14T10:31:24;99641.31;;;6.76;89.29
10806;BME280;5455;53.224;6.000;2023-03-14T10:34:03;99642.13;;;6.77;88.87
10806;BME280;5455;53.224;6.000;2023-03-14T10:36:32;99646.38;;;6.74;88.46
10806;BME280;5455;53.224;6.000;2023-03-14T10:42:02;99662.50;;;7.44;81.62
10806;BME280;5455;53.224;6.000;2023-03-14T10:44:31;99677.09;;;7.51;78.78
10806;BME280;5455;53.224;6.000;2023-03-14T10:47:01;99696.09;;;7.18;78.87
10806;BME280;5455;53.224;6.000;2023-03-14T10:49:33;99703.41;;;6.88;77.10
10806;BME280;5455;53.224;6.000;2023-03-14T10:54:40;99731.66;;;6.53;71.53
10806;BME280;5455;53.224;6.000;2023-03-14T10:57:07;99736.97;;;6.46;69.47
10806;BME280;5455;53.224;6.000;2023-03-14T10:59:37;99738.97;;;6.49;69.01
10806;BME280;5455;53.224;6.000;2023-03-14T11:02:27;99744.41;;;6.46;69.69
10806;BME280;5455;53.224;6.000;2023-03-14T11:05:21;99758.16;;;6.49;70.05
10806;BME280;5455;53.224;6.000;2023-03-14T11:07:53;99762.22;;;6.75;73.42
10806;BME280;5455;53.224;6.000;2023-03-14T11:10:32;99772.16;;;6.83;67.39
10806;BME280;5455;53.224;6.000;2023-03-14T11:13:23;99771.53;;;6.89;71.44
10806;BME280;5455;53.224;6.000;2023-03-14T11:21:21;99797.13;;;6.97;73.46
10806;BME280;5455;53.224;6.000;2023-03-14T11:23:55;99810.38;;;7.14;67.42
10806;BME280;5455;53.224;6.000;2023-03-14T11:29:28;99823.94;;;6.88;65.22
10806;BME280;5455;53.224;6.000;2023-03-14T11:32:02;99837.66;;;7.07;68.82
10806;BME280;5455;53.224;6.000;2023-03-14T11:34:40;99836.31;;;7.58;68.61
10806;BME280;5455;53.224;6.000;2023-03-14T11:37:35;99842.81;;;7.92;63.59
10806;BME280;5455;53.224;6.000;2023-03-14T11:40:21;99848.16;;;7.62;64.10
10806;BME280;5455;53.224;6.000;2023-03-14T11:43:17;99865.00;;;7.42;64.60
10806;BME280;5455;53.224;6.000;2023-03-14T11:45:48;99872.28;;;7.34;69.20
10806;BME280;5455;53.224;6.000;2023-03-14T11:48:28;99902.50;;;7.18;71.35
10806;BME280;5455;53.224;6.000;2023-03-14T11:51:01;99893.88;;;6.82;75.93
10806;BME280;5455;53.224;6.000;2023-03-14T11:53:48;99895.31;;;6.60;76.20
10806;BME280;5455;53.224;6.000;2023-03-14T11:59:04;99916.50;;;6.79;73.92
10806;BME280;5455;53.224;6.000;2023-03-14T12:01:53;99918.59;;;7.20;71.74
10806;BME280;5455;53.224;6.000;2023-03-14T12:06:56;99919.47;;;7.43;66.84
10806;BME280;5455;53.224;6.000;2023-03-14T12:09:25;99933.97;;;7.44;61.62
10806;BME280;5455;53.224;6.000;2023-03-14T12:11:56;99933.97;;;7.44;63.41
10806;BME280;5455;53.224;6.000;2023-03-14T12:14:27;99945.38;;;7.65;63.48
10806;BME280;5455;53.224;6.000;2023-03-14T12:17:06;99968.56;;;7.67;66.42
10806;BME280;5455;53.224;6.000;2023-03-14T12:19:38;99972.31;;;7.59;65.09
10806;BME280;5455;53.224;6.000;2023-03-14T12:24:45;99991.19;;;7.45;67.35
10806;BME280;5455;53.224;6.000;2023-03-14T12:27:41;99997.97;;;7.32;64.72
10806;BME280;5455;53.224;6.000;2023-03-14T12:30:24;99987.72;;;7.29;63.39
10806;BME280;5455;53.224;6.000;2023-03-14T12:35:51;100004.81;;;7.22;58.37
10806;BME280;5455;53.224;6.000;2023-03-14T12:41:19;100000.94;;;6.92;60.73
10806;BME280;5455;53.224;6.000;2023-03-14T12:43:47;100017.47;;;6.96;61.49
10806;BME280;5455;53.224;6.000;2023-03-14T12:48:46;100019.94;;;7.01;62.25
10806;BME280;5455;53.224;6.000;2023-03-14T12:51:16;100023.28;;;7.26;65.86
10806;BME280;5455;53.224;6.000;2023-03-14T12:56:25;100038.34;;;7.51;64.94
10806;BME280;5455;53.224;6.000;2023-03-14T12:59:45;100036.09;;;7.21;57.83
10806;BME280;5455;53.224;6.000;2023-03-14T13:04:43;100053.81;;;7.08;58.55
10806;BME280;5455;53.224;6.000;2023-03-14T13:13:03;100080.94;;;7.13;61.46
10806;BME280;5455;53.224;6.000;2023-03-14T13:15:42;100072.63;;;7.26;59.24
10806;BME280;5455;53.224;6.000;2023-03-14T13:18:13;100080.13;;;7.29;60.72
10806;BME280;5455;53.224;6.000;2023-03-14T13:20:48;100078.38;;;7.20;61.09
10806;BME280;5455;53.224;6.000;2023-03-14T13:23:26;100116.69;;;7.17;59.98
10806;BME280;5455;53.224;6.000;2023-03-14T13:25:54;100095.06;;;7.31;60.72
10806;BME280;5455;53.224;6.000;2023-03-14T13:28:21;100104.63;;;7.37;59.06
10806;BME280;5455;53.224;6.000;2023-03-14T13:30:50;100113.13;;;7.48;56.28
10806;BME280;5455;53.224;6.000;2023-03-14T13:33:22;100112.94;;;7.75;56.47
10806;BME280;5455;53.224;6.000;2023-03-14T13:35:56;100134.88;;;7.91;57.34
10806;BME280;5455;53.224;6.000;2023-03-14T13:38:28;100125.81;;;7.71;56.88
10806;BME280;5455;53.224;6.000;2023-03-14T13:40:57;100132.63;;;7.78;58.77
10806;BME280;5455;53.224;6.000;2023-03-14T13:43:40;100144.31;;;7.74;58.65
10806;BME280;5455;53.224;6.000;2023-03-14T13:46:14;100143.72;;;7.50;58.50
10806;BME280;5455;53.224;6.000;2023-03-14T13:48:48;100148.50;;;7.37;60.10
10806;BME280;5455;53.224;6.000;2023-03-14T13:51:18;100151.41;;;7.29;60.15
10806;BME280;5455;53.224;6.000;2023-03-14T13:53:47;100151.16;;;7.49;61.47
10806;BME280;5455;53.224;6.000;2023-03-14T13:56:19;100150.53;;;7.56;61.15
10806;BME280;5455;53.224;6.000;2023-03-14T13:58:47;100161.06;;;7.54;61.10
10806;BME280;5455;53.224;6.000;2023-03-14T14:01:17;100153.53;;;7.51;61.81
10806;BME280;5455;53.224;6.000;2023-03-14T14:03:47;100167.50;;;7.46;60.30
10806;BME280;5455;53.224;6.000;2023-03-14T14:08:48;100178.75;;;7.25;59.49
10806;BME280;5455;53.224;6.000;2023-03-14T14:14:42;100197.03;;;7.21;58.77
10806;BME280;5455;53.224;6.000;2023-03-14T14:17:14;100203.22;;;7.18;58.53
10806;BME280;5455;53.224;6.000;2023-03-14T14:19:43;100213.50;;;7.05;59.01
10806;BME280;5455;53.224;6.000;2023-03-14T14:22:11;100225.84;;;6.99;59.50
10806;BME280;5455;53.224;6.000;2023-03-14T14:24:39;100228.06;;;7.09;59.59
10806;BME280;5455;53.224;6.000;2023-03-14T14:27:14;100245.31;;;7.10;57.99
10806;BME280;5455;53.224;6.000;2023-03-14T14:29:44;100246.66;;;7.16;59.32
10806;BME280;5455;53.224;6.000;2023-03-14T14:32:14;100240.66;;;7.26;58.83
10806;BME280;5455;53.224;6.000;2023-03-14T14:34:44;100260.09;;;7.21;61.40
10806;BME280;5455;53.224;6.000;2023-03-14T14:37:41;100257.19;;;7.14;64.52
10806;BME280;5455;53.224;6.000;2023-03-14T14:40:15;100261.44;;;7.11;64.09
10806;BME280;5455;53.224;6.000;2023-03-14T14:42:43;100268.31;;;7.21;63.72